Portada
METAR-TAF:

METAR-TAF

Aeroports :

Land's End, Anglaterra

latitud: 50-06-10N, longitud: 005-40-14W, altitud: 122 m

Observació

L'informe es va fer fa 22 minuts, a les 08:20 UTC
Vent 23 kt del Nord-Oest
Temperatura 11°C
Humitat 62%
Pressió 1006 hPa
Visibilitat 10 km o més
Núvols disperses a una alçada de 1800 ft

METAR: EGHC 060820Z 31023KT 9999 SCT018 11/04 Q1006

Hora: 09:42 (08:42 UTC)

Pronòstic

L'informe es va fer fa 45 minuts, a les 07:57 UTC
Pronòstic vàlid del 06 a les 09 UTC al 06 a les 18 UTC
Vent 18 kt del Nord-Oest
Visibilitat 10 km o més
Núvols disperses a una alçada de 2000 ft
Temporalment
l' 06 a les 09 UTC al 06 a les 18 UTC
Vent 22 kt del Nord-Oest amb ràfegues de 32 kt
Probabilitat 30% :
Temporalment
l' 06 a les 09 UTC al 06 a les 18 UTC
Visibilitat: 7000 m
Cel ennuvolat a una alçada de 1400 ft
xàfecs de pluja

TAF: EGHC 060757Z 0609/0618 31018KT 9999 SCT020 TEMPO 0609/0618 32022G32KT PROB30 TEMPO 0609/0618 7000 SHRA BKN014

Observacions i pronòstics meteorològics de més de 4000 aeroports (METAR i TAF).

Les estacions disponibles són els punts grocs i vermells al mapa.

Posi el ratolí al punt desitjat per veure el nom de l'estació.

Feu clic per veure les observacions i els pronòstics meteorològics.

Per canviar el mapa: feu clic els botons verds amb una creu de color negre per apropar; al botó verd amb un guió per allunyar la imatge; o en les fletxes verdes per a mapes adjacents.


METAR-TAF: